メインページ
METAR-TAF:

METAR-TAF

空港 :

キト, エクアドル

マリスカル・スクレ国際空港

緯度: 0-06-48S, 経度: 78-21-31W, 海抜: 2400m

現時点の気象観測

当レポートは52分前の01:00(UTC)に作成
の風 5kt
気温 14°C
湿度 94%
気圧 1027 hPa
視程10km以上
高度600ftの雲は散在している
高度1600ftの千切れ雲あり

METAR: SEQM 260100Z 01005KT 9999 SCT006 BKN016 14/13 Q1027 NOSIG RMK A3032

時間: 20:52 (01:52 UTC)

予報

当レポートは5時間7分前の20:45(UTC)に作成
予報は26日の 00時(UTC)から 26日の 24時(UTC)まで有効
北/北東の風 4kt
視程10km以上
高度3000ftの千切れ雲あり
26日の 0500時(UTC)から
の風 kt
視程: 5000m
高度500ftの雲は散在している
高度2000ftの千切れ雲あり
散在霧
26日の 1300時(UTC)から
変向風 3kt
視程10km以上
高度3000ftの雲は散在している
26日の 17時(UTC)から 26日の 19時(UTC)まで徐々に
の風 10kt

TAF: SEQM 252045Z 2600/2624 03004KT 9999 BKN030 FM260500 00000KT 5000 BCFG SCT005 BKN020 FM261300 VRB03KT 9999 SCT030 BECMG 2617/2619 36010KT TX24/2619Z TN10/2611Z

4,000以上の空港の気象観測と天気予報(METAR報とTAF報)

利用可能な観測所は地図上に黄色い丸と赤い丸で示す。

丸の上にカーソルを重ねると観測所名を参照できる。

次にクリックすると気象観測と天気予報を参照できる。

マップの切り替え:黒色「×」印の緑ボタンをクリックして拡大、「-」印の緑ボタンをクリックして縮小、緑色の三角印をクリックして隣りの地図に切り替え


METAR-TAF: